createdAt,value
2023-03-16T00:00:10.612Z,14
2023-03-16T00:05:10.605Z,16
2023-03-16T00:10:10.592Z,16
2023-03-16T00:15:10.586Z,12
2023-03-16T00:20:10.605Z,12
2023-03-16T00:25:10.611Z,12
2023-03-16T00:30:10.592Z,14
2023-03-16T00:35:10.636Z,15
2023-03-16T00:40:10.619Z,14
2023-03-16T00:45:10.612Z,12
2023-03-16T00:50:10.580Z,15
2023-03-16T01:00:10.628Z,16
2023-03-16T01:05:10.643Z,11
2023-03-16T01:10:10.665Z,12
2023-03-16T01:15:10.640Z,12
2023-03-16T01:20:10.599Z,18
2023-03-16T01:25:10.630Z,14
2023-03-16T01:30:10.601Z,16
2023-03-16T01:35:10.600Z,17
2023-03-16T01:40:10.608Z,18
2023-03-16T01:45:10.606Z,18
2023-03-16T01:50:10.631Z,17
2023-03-16T01:55:10.647Z,16
2023-03-16T02:00:10.750Z,14
2023-03-16T02:05:10.684Z,15
2023-03-16T02:10:10.630Z,16
2023-03-16T02:15:10.605Z,19
2023-03-16T02:20:10.638Z,17
2023-03-16T02:25:10.653Z,17
2023-03-16T02:30:10.616Z,15
2023-03-16T02:35:10.647Z,14
2023-03-16T02:40:10.669Z,14
2023-03-16T02:45:10.625Z,16
2023-03-16T02:50:10.649Z,15
2023-03-16T02:55:10.658Z,18
2023-03-16T03:00:10.660Z,17
2023-03-16T03:05:10.648Z,13
2023-03-16T03:10:10.631Z,14
2023-03-16T03:15:10.668Z,16
2023-03-16T03:20:10.669Z,18
2023-03-16T03:25:10.642Z,21
2023-03-16T03:30:10.685Z,15
2023-03-16T03:35:10.654Z,14
2023-03-16T03:40:10.642Z,18
2023-03-16T03:45:10.675Z,17
2023-03-16T03:50:10.664Z,19
2023-03-16T03:55:10.646Z,20
2023-03-16T04:00:10.671Z,21
2023-03-16T04:05:10.658Z,18
2023-03-16T04:10:10.700Z,17
2023-03-16T04:15:10.672Z,19
2023-03-16T04:20:10.678Z,17
2023-03-16T04:25:11.525Z,20
2023-03-16T04:30:10.706Z,17
2023-03-16T04:35:10.662Z,20
2023-03-16T04:40:11.042Z,22
2023-03-16T04:45:10.671Z,16
2023-03-16T04:50:10.709Z,32
2023-03-16T04:55:10.690Z,16
2023-03-16T05:00:10.680Z,16
2023-03-16T05:05:10.702Z,17
2023-03-16T05:10:10.703Z,14
2023-03-16T05:25:10.732Z,32
2023-03-16T05:30:10.720Z,18
2023-03-16T05:45:10.706Z,18
2023-03-16T05:50:10.724Z,17
2023-03-16T05:55:10.714Z,18
2023-03-16T06:10:10.725Z,23
2023-03-16T06:15:10.710Z,22
2023-03-16T06:25:10.742Z,20
2023-03-16T06:40:10.734Z,21
2023-03-16T06:50:10.749Z,23
2023-03-16T07:05:10.740Z,20
2023-03-16T07:10:10.797Z,16
2023-03-16T07:22:04.746Z,10
2023-03-16T08:00:59.778Z,8
2023-03-16T09:06:20.550Z,2
2023-03-16T09:11:20.562Z,2
2023-03-16T09:16:20.573Z,4
2023-03-16T09:21:20.586Z,2
2023-03-16T09:26:20.541Z,2
2023-03-16T09:31:20.570Z,1
2023-03-16T10:15:45.866Z,1
2023-03-16T11:20:18.569Z,1
2023-03-16T11:30:45.702Z,7
2023-03-16T11:59:15.686Z,0
2023-03-16T12:04:18.090Z,0
2023-03-16T12:19:02.116Z,0
2023-03-16T12:35:22.127Z,1
2023-03-16T14:27:20.299Z,1
